Main page
METAR-TAF:

METAR-TAF

Airports :

Carlisle, England

Carlisle Lake District Airport

latitude: 54-56-15N, longitude: 002-48-33W, elevation: 57 m

Current weather observation

The report was made 7 hours and 25 minutes ago, at 16:50 UTC
Wind 7 kt from the West/Southwest
Temperature 14°C
Humidity 72%
Pressure 1018 hPa
Visibility 10 km or more
Few clouds at a height of 2300 ft

METAR: EGNC 191650Z 24007KT 9999 FEW023 14/09 Q1018

Time: 01:15 (00:15 UTC)

Forecast

The report was made 10 hours and 17 minutes ago, at 13:58 UTC
Forecast valid from 19 at 15 UTC to 19 at 17 UTC
Wind 8 kt from the West
Visibility 10 km or more
Scattered clouds at a height of 3000 ft

TAF: EGNC 191358Z 1915/1917 27008KT 9999 SCT030

Weather observations and forecasts of more than 4000 airports (METAR and TAF reports).

The available stations are represented by yellow and red dots on the map.

Hover mouse over dot to see the name of the station.

Then click to see weather observations and forecasts.

To change the map : click on the green buttons with a black cross to zoom in, on the green button with a dash to zoom out, or on the green arrows for adjacent maps.


METAR-TAF: